»·PEaware :: N6182G KPSP-L70

N6182G :: KPSP-L70

FLIGHT INFORMATION

Flight Status: Arrived
Operator: Privately registered:
United States
More flights under this callsign
Pilot: Flight Safety International (Columbus) (7970)
Aircraft: CESSNA 182 SKYLANE
(C182)
More flights by this aircraft type
Origin: KPSP Palm Springs Intl
United States
Destination: L70 Agua Dulce
United States
More flights between these airports :: More routes between these airports
Route: KPSP VFR L70
File this flight plan on PilotEdge
Remarks:
Altitude:
(Current/Filed)
4,500ft
Speed:
(Current/Filed)
150kts
Departed: 19-Aug-17 10:09 AM
Arrived: 19-Aug-17 10:58 AM
Distance/Time
Traveled:
98nm/0:48
Distance/Time
To Go:
Arrived

Flight Plot

Page will automatically refresh every two minutes.

Flight plan parsing failed; only flown route is shown


Map Options




Map Legend


Flown Route
Filed Route
Departure Airport
Arrival Airport
Navaid (VOR, NDB)
Fix

Horizontal Profiles

Position Reports

Time Latitude Longitude Heading Altitude Ground
Speed
19-Aug-17 10:01 33.823742 -116.497921 53 480ft 0kts
19-Aug-17 10:02 33.823744 -116.497918 53 480ft 0kts
19-Aug-17 10:03 33.823745 -116.497916 53 480ft 0kts
19-Aug-17 10:04 33.823747 -116.497913 53 480ft 0kts
19-Aug-17 10:05 33.823749 -116.497910 53 480ft 0kts
19-Aug-17 10:06 33.823750 -116.497908 53 480ft 0kts
19-Aug-17 10:07 33.823752 -116.497905 53 480ft 0kts
19-Aug-17 10:08 33.823754 -116.497903 53 480ft 0kts
19-Aug-17 10:09 33.823755 -116.497900 53 480ft 0kts
19-Aug-17 10:10 33.822105 -116.496782 196 480ft 15kts
19-Aug-17 10:10 33.819418 -116.496704 230 480ft 13kts
19-Aug-17 10:11 33.819298 -116.498444 322 480ft 0kts
19-Aug-17 10:13 33.837416 -116.513226 326 1121ft 98kts
19-Aug-17 10:13 33.855072 -116.530829 317 2128ft 98kts
19-Aug-17 10:14 33.870672 -116.558103 297 3490ft 98kts
19-Aug-17 10:15 33.888964 -116.585975 309 4454ft 122kts
19-Aug-17 10:16 33.910074 -116.623767 285 4495ft 136kts
19-Aug-17 10:18 33.910360 -116.675635 266 4523ft 132kts
19-Aug-17 10:19 33.910925 -116.712494 277 4542ft 132kts
19-Aug-17 10:20 33.916563 -116.756902 277 4573ft 141kts
19-Aug-17 10:21 33.920416 -116.803688 274 4790ft 133kts
19-Aug-17 10:22 33.924013 -116.847229 278 5383ft 133kts
19-Aug-17 10:23 33.943574 -116.884774 301 5962ft 125kts
19-Aug-17 10:24 33.963069 -116.919109 302 6565ft 131kts
19-Aug-17 10:25 33.985588 -116.959065 302 6623ft 151kts
19-Aug-17 10:26 34.008598 -117.000608 302 6613ft 143kts
19-Aug-17 10:27 34.030721 -117.040866 301 6612ft 148kts
19-Aug-17 10:28 34.053352 -117.082522 301 6600ft 146kts
19-Aug-17 10:29 34.075513 -117.123662 302 6585ft 146kts
19-Aug-17 10:30 34.097778 -117.164839 302 6572ft 150kts
19-Aug-17 10:31 34.120070 -117.206731 301 6565ft 145kts
19-Aug-17 10:32 34.144910 -117.243578 342 6557ft 144kts
19-Aug-17 10:33 34.184259 -117.251841 346 6576ft 143kts
19-Aug-17 10:34 34.222616 -117.264276 344 6587ft 143kts
19-Aug-17 10:35 34.260729 -117.276969 344 6597ft 140kts
19-Aug-17 10:36 34.298325 -117.289522 344 6567ft 140kts
19-Aug-17 10:37 34.336399 -117.302244 344 6571ft 145kts
19-Aug-17 10:38 34.374107 -117.317726 316 6566ft 142kts
19-Aug-17 10:39 34.383294 -117.362672 278 6574ft 137kts
19-Aug-17 10:40 34.389178 -117.408283 278 6576ft 137kts
19-Aug-17 10:41 34.395056 -117.454019 278 6578ft 139kts
19-Aug-17 10:42 34.400994 -117.500275 278 6576ft 137kts
19-Aug-17 10:43 34.406823 -117.545829 278 6575ft 137kts
19-Aug-17 10:44 34.412655 -117.591539 278 6576ft 137kts
19-Aug-17 10:45 34.418499 -117.637461 279 6577ft 137kts
19-Aug-17 10:46 34.424434 -117.684244 279 6583ft 149kts
19-Aug-17 10:47 34.430660 -117.733511 279 6571ft 142kts
19-Aug-17 10:48 34.436577 -117.780475 279 6517ft 141kts
19-Aug-17 10:49 34.442429 -117.827071 279 6515ft 139kts
19-Aug-17 10:50 34.448259 -117.873638 279 6511ft 140kts
19-Aug-17 10:51 34.454069 -117.920189 279 6505ft 139kts
19-Aug-17 10:52 34.459838 -117.966552 278 6505ft 139kts
19-Aug-17 10:53 34.465608 -118.013120 279 6507ft 140kts
19-Aug-17 10:54 34.471383 -118.059842 279 6499ft 140kts
19-Aug-17 10:55 34.477134 -118.106527 279 6500ft 140kts
19-Aug-17 10:56 34.482938 -118.153737 279 6504ft 147kts
19-Aug-17 10:57 34.488876 -118.202273 279 6498ft 141kts
19-Aug-17 10:58 34.494602 -118.249208 279 6515ft 142kts
19-Aug-17 10:59 34.516119 -118.282738 315 4876ft 126kts
19-Aug-17 11:00 34.519401 -118.286250 256 3602ft 90kts
19-Aug-17 11:01 34.507849 -118.306095 225 2666ft 63kts
19-Aug-17 11:02 34.504501 -118.311844 309 2605ft 3kts
19-Aug-17 11:03 34.504760 -118.313426 58 2605ft 0kts
19-Aug-17 11:04 34.504760 -118.313426 58 2605ft 0kts
19-Aug-17 11:05 34.504760 -118.313426 58 2605ft 0kts
19-Aug-17 11:06 34.504760 -118.313426 58 2605ft 0kts
19-Aug-17 11:07 34.504760 -118.313426 58 2605ft 0kts
19-Aug-17 11:08 34.504760 -118.313426 58 2605ft 0kts
19-Aug-17 11:09 34.504760 -118.313426 58 2605ft 0kts
19-Aug-17 11:10 34.504760 -118.313426 58 2605ft 0kts
19-Aug-17 11:11 34.504760 -118.313426 58 2605ft 0kts
19-Aug-17 11:12 34.504760 -118.313426 58 2605ft 0kts
19-Aug-17 11:13 34.504760 -118.313426 58 2605ft 0kts
19-Aug-17 11:14 34.504760 -118.313426 58 2605ft 0kts
19-Aug-17 11:15 34.504760 -118.313426 58 2605ft 0kts
19-Aug-17 11:16 34.504760 -118.313426 58 2605ft 0kts

Navigation Log

Ident Type
Flight plan parsing failed, navigation log unavailable